River Haven, North Carolina
Current Conditions -  °F | °C
As of 8:55 AM on Friday 31 Oct 2014 (Local Time) from KVUJ Reporting Station
Clear Clear  
Wind Chill: 42°   Ceiling: Unl
Heat Index: 45°   Visibility: 10mi
Dew Point: 42°   Wind: 6mph
Humidity: 87%   Direction: 20°NNE
Pressure: 30"   Gusts: NA
Location:  35.3503°N, 80.2174°W
Report Text: KVUJ 311255Z AUTO 02005KT 10SM CLR 07/05 A3000 RMK AO2 T00730053
Loading
Personal Weather Stations






























Interactive Weather Map
Tropical Storm Tracking
New forecast layout! Learn more

10-Day Weather Forecast

Advertisements
Track Severe Weather on mobile